createdAt,value
2019-06-01T00:02:04.409Z,17.47
2019-06-01T00:04:33.597Z,19.63
2019-06-01T00:07:03.415Z,18.43
2019-06-01T00:09:33.301Z,18.97
2019-06-01T00:12:03.572Z,27.73
2019-06-01T00:14:33.000Z,21.77
2019-06-01T00:17:02.641Z,18.17
2019-06-01T00:19:31.983Z,21.77
2019-06-01T00:22:02.407Z,23.87
2019-06-01T00:24:31.224Z,22.50
2019-06-01T00:27:03.164Z,30.47
2019-06-01T00:29:31.993Z,22.17
2019-06-01T00:32:01.824Z,21.57
2019-06-01T00:34:30.644Z,17.87
2019-06-01T00:37:01.357Z,25.40
2019-06-01T00:39:32.175Z,26.37
2019-06-01T00:42:02.136Z,23.60
2019-06-01T00:44:32.566Z,21.93
2019-06-01T00:47:02.288Z,22.47
2019-06-01T00:49:34.647Z,25.37
2019-06-01T00:52:05.361Z,23.67
2019-06-01T00:54:35.475Z,27.87
2019-06-01T00:57:04.334Z,29.87
2019-06-01T00:59:33.193Z,30.17
2019-06-01T01:02:02.049Z,21.83
2019-06-01T01:04:31.858Z,21.70
2019-06-01T01:07:02.085Z,29.87
2019-06-01T01:09:32.896Z,28.57
2019-06-01T01:12:03.212Z,32.47
2019-06-01T01:14:36.598Z,22.97
2019-06-01T01:17:06.736Z,23.57
2019-06-01T01:19:36.480Z,21.50
2019-06-01T01:22:07.357Z,25.17
2019-06-01T01:24:37.415Z,33.70
2019-06-01T01:27:07.286Z,26.80
2019-06-01T01:29:39.473Z,23.23
2019-06-01T01:32:09.899Z,31.43
2019-06-01T01:34:39.935Z,31.60
2019-06-01T01:37:09.824Z,29.53
2019-06-01T01:39:39.154Z,32.00
2019-06-01T01:42:08.135Z,30.40
2019-06-01T01:44:36.922Z,29.43
2019-06-01T01:47:05.823Z,28.40
2019-06-01T01:49:34.627Z,31.97
2019-06-01T01:52:04.717Z,29.53
2019-06-01T01:54:34.520Z,30.57
2019-06-01T01:57:07.208Z,30.50
2019-06-01T01:59:33.578Z,29.30
2019-06-01T02:02:02.959Z,36.30
2019-06-01T02:04:31.330Z,29.50
2019-06-01T02:07:00.483Z,27.03
2019-06-01T02:09:32.577Z,30.40
2019-06-01T02:12:02.608Z,32.80
2019-06-01T02:14:33.154Z,30.37
2019-06-01T02:17:03.572Z,29.53
2019-06-01T02:19:36.446Z,33.93
2019-06-01T02:22:03.706Z,30.53
2019-06-01T02:24:33.073Z,29.83
2019-06-01T02:27:03.932Z,29.80
2019-06-01T02:29:33.687Z,32.03
2019-06-01T02:32:04.817Z,32.87
2019-06-01T02:34:34.800Z,30.93
2019-06-01T02:37:06.334Z,35.20
2019-06-01T02:39:35.685Z,39.53
2019-06-01T02:42:05.683Z,35.97
2019-06-01T02:44:39.595Z,43.73
2019-06-01T02:47:11.714Z,32.83
2019-06-01T02:49:45.033Z,35.17
2019-06-01T02:52:15.201Z,34.00
2019-06-01T02:54:44.672Z,27.97
2019-06-01T02:57:13.666Z,33.03
2019-06-01T02:59:43.818Z,32.83
2019-06-01T03:02:14.978Z,32.07
2019-06-01T03:04:41.779Z,33.33
2019-06-01T03:07:12.597Z,35.37
2019-06-01T03:09:41.431Z,36.50
2019-06-01T03:12:15.426Z,32.83
2019-06-01T03:14:46.659Z,41.30
2019-06-01T03:17:18.956Z,33.77
2019-06-01T03:19:49.349Z,34.00
2019-06-01T03:22:19.674Z,34.83
2019-06-01T03:24:49.543Z,35.27
2019-06-01T03:27:19.480Z,36.73
2019-06-01T03:29:57.130Z,40.97
2019-06-01T03:32:36.278Z,34.57
2019-06-01T03:34:57.458Z,29.87
2019-06-01T03:37:31.107Z,29.87
2019-06-01T03:40:01.198Z,33.03
2019-06-01T03:42:31.077Z,29.93
2019-06-01T03:45:03.459Z,30.33
2019-06-01T03:47:41.209Z,29.97
2019-06-01T03:50:14.359Z,36.27
2019-06-01T03:52:52.710Z,33.83
2019-06-01T03:55:25.181Z,30.37
2019-06-01T03:58:05.037Z,30.17
2019-06-01T04:00:41.949Z,30.83
2019-06-01T04:03:12.366Z,27.03
2019-06-01T04:05:42.897Z,30.30
2019-06-01T04:08:15.092Z,29.73
2019-06-01T04:10:46.300Z,31.10
2019-06-01T04:13:16.364Z,32.60
2019-06-01T04:15:48.289Z,35.03
2019-06-01T04:18:22.803Z,29.10
2019-06-01T04:20:52.563Z,36.20
2019-06-01T04:23:22.122Z,36.60
2019-06-01T04:25:58.706Z,29.07
2019-06-01T04:28:37.432Z,29.40
2019-06-01T04:31:15.604Z,29.00
2019-06-01T04:33:45.948Z,24.40
2019-06-01T04:36:18.455Z,28.03
2019-06-01T04:39:11.650Z,24.60
2019-06-01T04:42:00.900Z,23.97
2019-06-01T04:45:25.984Z,21.47
2019-06-01T04:48:19.804Z,22.70
2019-06-01T04:50:53.095Z,22.63
2019-06-01T04:54:15.992Z,23.37
2019-06-01T04:56:51.996Z,28.00
2019-06-01T05:03:08.486Z,24.83
2019-06-01T05:05:45.457Z,21.27
2019-06-01T05:08:19.870Z,25.73
2019-06-01T05:10:53.712Z,19.63
2019-06-01T05:13:38.214Z,18.60
2019-06-01T05:16:48.121Z,20.67
2019-06-01T05:36:56.562Z,14.50
2019-06-01T05:39:26.942Z,12.53
2019-06-01T05:41:56.703Z,14.33
2019-06-01T05:44:25.524Z,14.13
2019-06-01T05:46:56.601Z,17.30
2019-06-01T05:49:25.475Z,15.60
2019-06-01T05:51:54.317Z,14.13
2019-06-01T05:54:25.093Z,15.93
2019-06-01T05:56:56.161Z,11.27
2019-06-01T05:59:28.575Z,11.90
2019-06-01T06:02:01.061Z,12.50
2019-06-01T06:04:32.659Z,13.77
2019-06-01T06:07:05.691Z,10.23
2019-06-01T06:09:35.693Z,14.43
2019-06-01T06:12:06.500Z,10.90
2019-06-01T06:14:35.881Z,11.23
2019-06-01T06:17:05.328Z,12.67
2019-06-01T06:19:34.215Z,13.37
2019-06-01T06:22:04.072Z,14.43
2019-06-01T06:24:33.738Z,15.97
2019-06-01T06:27:04.270Z,11.47
2019-06-01T06:29:34.174Z,11.20
2019-06-01T06:32:03.718Z,12.90
2019-06-01T06:34:33.333Z,12.13
2019-06-01T06:37:02.291Z,15.07
2019-06-01T06:39:32.944Z,11.97
2019-06-01T06:42:01.831Z,12.10
2019-06-01T06:44:30.689Z,17.97
2019-06-01T06:47:01.444Z,13.87
2019-06-01T06:49:30.344Z,13.63
2019-06-01T06:51:59.159Z,12.73
2019-06-01T06:54:28.112Z,16.00
2019-06-01T06:56:58.038Z,12.67
2019-06-01T06:59:26.949Z,13.70
2019-06-01T07:01:55.859Z,14.37
2019-06-01T07:04:25.304Z,22.43
2019-06-01T07:06:55.628Z,10.50
2019-06-01T07:09:24.681Z,14.73
2019-06-01T07:11:54.238Z,12.07
2019-06-01T07:14:23.804Z,12.43
2019-06-01T07:16:52.666Z,13.50
2019-06-01T07:19:22.523Z,11.40
2019-06-01T07:21:51.909Z,13.70
2019-06-01T07:24:21.813Z,13.10
2019-06-01T07:26:51.996Z,12.07
2019-06-01T07:29:22.090Z,14.53
2019-06-01T07:31:52.055Z,12.10
2019-06-01T07:34:35.584Z,15.83
2019-06-01T07:36:51.318Z,13.80
2019-06-01T07:39:22.559Z,13.47
2019-06-01T07:41:53.093Z,13.60
2019-06-01T07:44:22.916Z,16.77
2019-06-01T07:46:52.113Z,14.13
2019-06-01T07:49:21.272Z,13.77
2019-06-01T07:51:50.184Z,14.37
2019-06-01T07:54:20.244Z,12.70
2019-06-01T07:56:48.606Z,15.27
2019-06-01T07:59:17.654Z,13.93
2019-06-01T08:01:47.393Z,10.90
2019-06-01T08:04:16.915Z,11.53
2019-06-01T08:06:48.459Z,17.10
2019-06-01T08:09:15.096Z,11.50
2019-06-01T08:11:44.040Z,10.47
2019-06-01T08:14:12.840Z,10.30
2019-06-01T08:16:41.781Z,12.07
2019-06-01T08:19:10.988Z,12.63
2019-06-01T08:21:39.909Z,9.97
2019-06-01T08:24:08.761Z,11.83
2019-06-01T08:26:38.154Z,12.07
2019-06-01T08:29:07.125Z,13.73
2019-06-01T08:31:37.648Z,13.30
2019-06-01T08:34:14.638Z,12.37
2019-06-01T08:36:50.175Z,9.47
2019-06-01T08:39:19.262Z,10.30
2019-06-01T08:41:48.979Z,11.77
2019-06-01T08:44:25.416Z,11.27
2019-06-01T08:46:55.354Z,11.07
2019-06-01T08:49:25.860Z,12.53
2019-06-01T08:51:55.276Z,11.43
2019-06-01T08:54:25.959Z,12.87
2019-06-01T08:56:54.503Z,8.87
2019-06-01T08:59:24.270Z,9.93
2019-06-01T09:01:53.898Z,9.43
2019-06-01T09:04:24.579Z,8.50
2019-06-01T09:06:53.885Z,8.30
2019-06-01T09:09:24.933Z,10.20
2019-06-01T09:11:53.733Z,7.10
2019-06-01T09:14:23.646Z,10.60
2019-06-01T09:16:52.933Z,8.10
2019-06-01T09:19:22.401Z,9.87
2019-06-01T09:21:52.514Z,9.87
2019-06-01T09:24:21.445Z,7.90
2019-06-01T09:26:50.881Z,7.33
2019-06-01T09:29:19.816Z,6.40
2019-06-01T09:31:48.610Z,7.70
2019-06-01T09:34:17.520Z,7.70
2019-06-01T09:36:47.113Z,5.00
2019-06-01T09:39:15.920Z,9.07
2019-06-01T09:41:44.751Z,6.40
2019-06-01T09:44:13.605Z,6.87
2019-06-01T09:46:42.560Z,5.60
2019-06-01T09:49:12.099Z,8.23
2019-06-01T09:51:41.598Z,4.37
2019-06-01T09:54:10.610Z,4.70
2019-06-01T09:56:39.975Z,4.37
2019-06-01T09:59:08.467Z,8.10
2019-06-01T10:01:38.743Z,6.23
2019-06-01T10:04:06.209Z,5.70
2019-06-01T10:06:36.375Z,5.03
2019-06-01T10:09:04.644Z,8.93
2019-06-01T10:11:34.312Z,4.67
2019-06-01T10:14:02.617Z,5.07
2019-06-01T10:16:32.776Z,4.03
2019-06-01T10:19:02.925Z,4.93
2019-06-01T10:21:36.063Z,7.80
2019-06-01T10:24:04.419Z,5.17
2019-06-01T10:26:34.084Z,7.00
2019-06-01T10:29:05.598Z,7.43
2019-06-01T10:31:34.710Z,5.67
2019-06-01T10:34:03.355Z,7.50
2019-06-01T10:36:34.059Z,9.33
2019-06-01T10:39:04.937Z,4.83
2019-06-01T10:41:33.788Z,7.77
2019-06-01T10:44:04.864Z,8.57
2019-06-01T10:46:33.932Z,6.53
2019-06-01T10:49:03.753Z,5.63
2019-06-01T10:51:33.886Z,6.80
2019-06-01T10:54:02.171Z,4.77
2019-06-01T10:56:32.655Z,6.23
2019-06-01T10:59:06.424Z,8.07
2019-06-01T11:01:37.376Z,9.00
2019-06-01T11:04:05.588Z,6.70
2019-06-01T11:06:42.137Z,6.27
2019-06-01T11:09:03.336Z,7.13
2019-06-01T11:11:32.736Z,6.00
2019-06-01T11:14:02.906Z,6.67
2019-06-01T11:16:32.940Z,6.73
2019-06-01T11:19:03.591Z,8.07
2019-06-01T11:21:35.494Z,6.93
2019-06-01T11:24:03.560Z,11.27
2019-06-01T11:26:33.317Z,7.97
2019-06-01T11:29:01.341Z,9.87
2019-06-01T11:31:30.242Z,9.43
2019-06-01T11:34:00.752Z,8.50
2019-06-01T11:36:30.332Z,10.57
2019-06-01T11:38:59.277Z,10.83
2019-06-01T11:41:28.229Z,9.23
2019-06-01T11:43:58.496Z,8.57
2019-06-01T11:46:27.696Z,13.40
2019-06-01T11:49:20.529Z,9.47
2019-06-01T11:53:30.821Z,6.27
2019-06-01T12:10:10.847Z,10.70
2019-06-01T12:12:40.219Z,34.10
2019-06-01T12:15:10.261Z,14.23
2019-06-01T12:17:40.724Z,14.17
2019-06-01T12:20:34.427Z,9.80
2019-06-01T12:34:11.946Z,9.43
2019-06-01T12:36:41.328Z,9.43
2019-06-01T12:39:35.104Z,6.33
2019-06-01T12:42:12.750Z,13.97
2019-06-01T12:48:20.473Z,10.37
2019-06-01T13:07:33.272Z,9.03
2019-06-01T13:10:09.192Z,10.90
2019-06-01T13:12:52.913Z,8.23
2019-06-01T13:15:24.555Z,9.27
2019-06-01T13:21:08.158Z,6.70
2019-06-01T13:24:09.289Z,8.80
2019-06-01T13:26:59.234Z,11.73
2019-06-01T13:29:35.567Z,6.93
2019-06-01T13:32:13.678Z,7.77
2019-06-01T13:34:47.143Z,5.03
2019-06-01T13:37:16.722Z,9.03
2019-06-01T13:39:50.800Z,5.93
2019-06-01T13:42:15.202Z,7.10
2019-06-01T13:44:45.199Z,12.17
2019-06-01T13:47:14.692Z,8.10
2019-06-01T13:49:44.493Z,6.10
2019-06-01T13:52:12.385Z,6.30
2019-06-01T13:54:42.065Z,11.00
2019-06-01T13:57:13.194Z,10.07
2019-06-01T13:59:42.080Z,10.30
2019-06-01T14:02:10.928Z,8.27
2019-06-01T14:04:41.493Z,6.60
2019-06-01T14:07:12.882Z,6.63
2019-06-01T14:09:45.082Z,7.53
2019-06-01T14:12:12.611Z,8.53
2019-06-01T14:14:42.512Z,9.00
2019-06-01T14:17:11.830Z,13.13
2019-06-01T14:19:42.994Z,9.80
2019-06-01T14:22:12.610Z,8.47
2019-06-01T14:24:44.626Z,10.87
2019-06-01T14:27:11.746Z,7.27
2019-06-01T14:29:42.439Z,6.30
2019-06-01T14:32:11.319Z,6.27
2019-06-01T14:34:41.023Z,5.97
2019-06-01T14:37:12.307Z,8.53
2019-06-01T14:39:41.568Z,6.47
2019-06-01T14:42:10.462Z,10.13
2019-06-01T14:44:40.948Z,5.63
2019-06-01T14:47:12.550Z,9.93
2019-06-01T14:49:42.202Z,9.07
2019-06-01T14:54:47.630Z,7.60
2019-06-01T14:57:16.196Z,6.87
2019-06-01T14:59:46.428Z,9.83
2019-06-01T15:02:15.292Z,5.93
2019-06-01T15:04:44.483Z,9.23
2019-06-01T15:07:13.341Z,4.80
2019-06-01T15:09:42.186Z,9.60
2019-06-01T15:12:11.083Z,7.23
2019-06-01T15:14:40.069Z,10.50
2019-06-01T15:17:10.808Z,7.93
2019-06-01T15:19:39.668Z,4.70
2019-06-01T15:22:08.556Z,6.07
2019-06-01T15:24:37.378Z,5.77
2019-06-01T15:27:06.236Z,6.47
2019-06-01T15:29:35.172Z,6.03
2019-06-01T15:32:05.265Z,5.53
2019-06-01T15:34:34.538Z,5.20
2019-06-01T15:37:04.549Z,5.07
2019-06-01T15:39:34.053Z,6.30
2019-06-01T15:42:02.919Z,3.63
2019-06-01T15:44:31.761Z,4.63
2019-06-01T15:47:02.069Z,3.50
2019-06-01T15:49:29.831Z,6.03
2019-06-01T15:51:59.887Z,7.83
2019-06-01T15:54:27.600Z,7.00
2019-06-01T15:56:58.903Z,9.80
2019-06-01T15:59:30.120Z,4.57
2019-06-01T16:01:59.538Z,4.13
2019-06-01T16:04:29.346Z,8.67
2019-06-01T16:06:59.277Z,4.97
2019-06-01T16:09:41.549Z,12.33
2019-06-01T16:11:55.911Z,4.53
2019-06-01T16:14:25.379Z,11.63
2019-06-01T16:16:55.796Z,9.43
2019-06-01T16:19:24.062Z,3.47
2019-06-01T16:21:56.190Z,4.67
2019-06-01T16:24:25.697Z,9.67
2019-06-01T16:26:54.532Z,3.90
2019-06-01T16:29:23.997Z,10.37
2019-06-01T16:32:05.044Z,9.53
2019-06-01T16:34:33.322Z,8.20
2019-06-01T16:37:03.225Z,8.83
2019-06-01T16:39:31.556Z,6.60
2019-06-01T16:42:02.112Z,7.00
2019-06-01T16:44:30.571Z,28.17
2019-06-01T16:46:59.696Z,16.30
2019-06-01T16:49:29.788Z,18.00
2019-06-01T16:51:59.252Z,11.13
2019-06-01T16:54:27.446Z,9.33
2019-06-01T16:56:56.288Z,7.27
2019-06-01T16:59:26.314Z,4.83
2019-06-01T17:01:56.534Z,7.30
2019-06-01T17:04:26.169Z,9.03
2019-06-01T17:06:56.835Z,7.43
2019-06-01T17:09:25.647Z,6.30
2019-06-01T17:11:56.708Z,35.77
2019-06-01T17:14:25.508Z,12.40
2019-06-01T17:16:57.101Z,14.57
2019-06-01T17:19:27.944Z,15.97
2019-06-01T17:21:57.773Z,10.53
2019-06-01T17:24:27.375Z,13.47
2019-06-01T17:26:56.291Z,13.93
2019-06-01T17:29:25.165Z,8.13
2019-06-01T17:31:56.371Z,5.63
2019-06-01T17:34:23.782Z,7.70
2019-06-01T17:36:53.155Z,8.53
2019-06-01T17:39:22.176Z,10.37
2019-06-01T17:41:51.568Z,6.60
2019-06-01T17:44:22.034Z,7.07
2019-06-01T17:46:53.852Z,5.43
2019-06-01T17:49:20.260Z,4.93
2019-06-01T17:51:50.677Z,7.53
2019-06-01T17:54:20.459Z,8.27
2019-06-01T17:56:50.266Z,7.53
2019-06-01T17:59:19.258Z,10.23
2019-06-01T18:01:48.138Z,6.70
2019-06-01T18:04:17.703Z,6.70
2019-06-01T18:06:47.538Z,11.33
2019-06-01T18:09:16.971Z,7.97
2019-06-01T18:11:45.840Z,8.40
2019-06-01T18:14:14.669Z,4.33
2019-06-01T18:16:43.867Z,13.90
2019-06-01T18:19:13.472Z,5.47
2019-06-01T18:21:42.394Z,4.57
2019-06-01T18:24:12.585Z,5.53
2019-06-01T18:26:41.111Z,11.87
2019-06-01T18:29:10.755Z,12.67
2019-06-01T18:31:39.352Z,6.07
2019-06-01T18:34:09.981Z,7.33
2019-06-01T18:36:39.687Z,4.60
2019-06-01T18:39:10.083Z,4.23
2019-06-01T18:41:39.239Z,5.67
2019-06-01T18:44:08.170Z,6.63
2019-06-01T18:46:37.772Z,4.60
2019-06-01T18:49:07.884Z,6.80
2019-06-01T18:51:36.651Z,4.00
2019-06-01T18:54:06.607Z,4.50
2019-06-01T18:56:35.317Z,2.77
2019-06-01T18:59:06.541Z,2.87
2019-06-01T19:01:34.556Z,4.80
2019-06-01T19:04:03.434Z,7.80
2019-06-01T19:06:32.514Z,22.13
2019-06-01T19:09:02.328Z,9.33
2019-06-01T19:11:35.932Z,7.70
2019-06-01T19:14:02.690Z,6.87
2019-06-01T19:16:32.034Z,16.60
2019-06-01T19:19:01.843Z,16.77
2019-06-01T19:21:31.866Z,23.83
2019-06-01T19:24:00.867Z,21.87
2019-06-01T19:26:30.480Z,17.10
2019-06-01T19:29:00.290Z,18.30
2019-06-01T19:31:30.461Z,18.67
2019-06-01T19:34:00.165Z,15.57
2019-06-01T19:36:29.018Z,27.80
2019-06-01T19:38:59.935Z,21.73
2019-06-01T19:41:43.675Z,22.50
2019-06-01T19:44:00.596Z,18.30
2019-06-01T19:46:29.473Z,28.07
2019-06-01T19:49:00.050Z,13.60
2019-06-01T19:51:29.553Z,21.00
2019-06-01T19:53:59.016Z,26.97
2019-06-01T19:56:28.039Z,36.97
2019-06-01T19:58:56.993Z,38.67
2019-06-01T20:01:25.841Z,27.37
2019-06-01T20:03:56.565Z,22.30
2019-06-01T20:06:27.564Z,21.87
2019-06-01T20:08:57.621Z,34.80
2019-06-01T20:11:28.376Z,19.27
2019-06-01T20:13:57.325Z,12.73
2019-06-01T20:16:28.830Z,28.27
2019-06-01T20:19:00.944Z,15.47
2019-06-01T20:21:31.403Z,23.87
2019-06-01T20:24:03.538Z,21.63
2019-06-01T20:26:40.567Z,20.97
2019-06-01T20:29:06.357Z,11.67
2019-06-01T20:31:37.556Z,28.20
2019-06-01T20:34:10.029Z,15.13
2019-06-01T20:36:43.096Z,13.80
2019-06-01T20:39:14.272Z,20.10
2019-06-01T20:41:44.772Z,15.83
2019-06-01T20:44:16.817Z,21.73
2019-06-01T20:46:48.024Z,12.00
2019-06-01T20:49:18.812Z,23.43
2019-06-01T20:51:49.654Z,27.10
2019-06-01T20:54:19.612Z,18.67
2019-06-01T20:56:51.349Z,14.63
2019-06-01T20:59:23.465Z,15.20
2019-06-01T21:01:52.406Z,20.97
2019-06-01T21:04:24.310Z,32.13
2019-06-01T21:06:54.409Z,18.60
2019-06-01T21:09:26.277Z,15.73
2019-06-01T21:12:01.486Z,17.23
2019-06-01T21:14:34.715Z,18.73
2019-06-01T21:17:06.116Z,10.57
2019-06-01T21:19:42.672Z,12.80
2019-06-01T21:22:14.368Z,22.53
2019-06-01T21:24:44.860Z,15.80
2019-06-01T21:27:20.636Z,18.07
2019-06-01T21:29:51.579Z,12.60
2019-06-01T21:32:25.695Z,14.17
2019-06-01T21:34:56.664Z,17.87
2019-06-01T21:37:26.507Z,32.80
2019-06-01T21:39:56.530Z,18.03
2019-06-01T21:42:26.160Z,15.37
2019-06-01T21:44:54.926Z,7.97
2019-06-01T21:47:23.940Z,9.10
2019-06-01T21:49:52.766Z,9.57
2019-06-01T21:52:26.402Z,7.43
2019-06-01T21:55:03.989Z,10.13
2019-06-01T21:57:35.355Z,8.10
2019-06-01T22:00:06.835Z,8.80
2019-06-01T22:02:37.944Z,7.83
2019-06-01T22:05:09.155Z,7.87
2019-06-01T22:07:38.975Z,9.07
2019-06-01T22:10:17.144Z,7.73
2019-06-01T22:13:17.671Z,7.23
2019-06-01T22:15:34.442Z,9.73
2019-06-01T22:18:08.754Z,5.20
2019-06-01T22:20:39.698Z,9.77
2019-06-01T22:23:12.047Z,6.60
2019-06-01T22:26:46.346Z,8.00
2019-06-01T22:29:16.134Z,9.00
2019-06-01T22:31:47.123Z,5.80
2019-06-01T22:34:17.042Z,5.47
2019-06-01T22:36:47.672Z,6.27
2019-06-01T22:39:19.451Z,7.33
2019-06-01T22:41:48.022Z,8.17
2019-06-01T22:44:22.061Z,7.17
2019-06-01T22:46:53.767Z,8.00
2019-06-01T22:49:27.356Z,5.53
2019-06-01T22:51:57.033Z,8.90
2019-06-01T22:54:27.424Z,7.07
2019-06-01T22:57:01.059Z,9.93
2019-06-01T22:59:30.849Z,8.93
2019-06-01T23:02:04.649Z,9.37
2019-06-01T23:04:34.683Z,16.00
2019-06-01T23:07:05.761Z,12.57
2019-06-01T23:09:36.677Z,5.33
2019-06-01T23:12:07.174Z,9.87
2019-06-01T23:14:37.200Z,8.83
2019-06-01T23:17:06.848Z,13.63
2019-06-01T23:19:36.825Z,8.70
2019-06-01T23:22:08.475Z,8.47
2019-06-01T23:24:38.722Z,7.70
2019-06-01T23:27:08.738Z,12.07
2019-06-01T23:29:38.362Z,9.33
2019-06-01T23:32:08.333Z,6.90
2019-06-01T23:34:38.092Z,10.43
2019-06-01T23:37:09.084Z,7.57
2019-06-01T23:39:41.153Z,10.37
2019-06-01T23:42:13.744Z,6.77
2019-06-01T23:44:43.654Z,12.23
2019-06-01T23:47:13.047Z,8.47
2019-06-01T23:49:43.008Z,7.23
2019-06-01T23:52:16.893Z,9.33
2019-06-01T23:54:46.589Z,12.23
2019-06-01T23:57:18.004Z,8.77
2019-06-01T23:59:47.213Z,12.03
